Time;durP1;ratioP1;P1;durP2;ratioP2;P2;SDS_P1;SDS_P2;PMS_P1;PMS_P2;Temp;Humidity;BMP_temperature;BMP_pressure;BME280_temperature;BME280_humidity;BME280_pressure;Samples;Min_cycle;Max_cycle;Signal;HPM_P1;HPM_P2
2023/06/22 00:01:52;;;;;;;3.40;1.80;;;;;;;25.71;46.90;101824.59;5030247;28;20477;-68
2023/06/22 00:04:17;;;;;;;3.20;1.60;;;;;;;25.71;46.67;101805.91;5030867;28;20048;-68
2023/06/22 00:06:43;;;;;;;3.63;1.70;;;;;;;25.71;46.59;101803.25;5030477;28;21284;-68
2023/06/22 00:09:10;;;;;;;3.58;1.75;;;;;;;25.72;46.83;101818.25;5030175;28;20265;-68
2023/06/22 00:11:35;;;;;;;5.25;2.08;;;;;;;25.70;46.77;101823.75;5030528;28;20033;-69
2023/06/22 00:14:01;;;;;;;2.97;1.50;;;;;;;25.69;46.89;101823.91;5030706;28;20060;-68
2023/06/22 00:16:26;;;;;;;4.70;1.70;;;;;;;25.70;46.87;101817.56;5030171;28;20029;-68
2023/06/22 00:18:51;;;;;;;3.40;1.58;;;;;;;25.67;46.90;101809.88;5030528;28;20395;-68
2023/06/22 00:21:17;;;;;;;3.40;1.60;;;;;;;25.69;47.09;101818.56;5032530;28;20441;-69
2023/06/22 00:23:43;;;;;;;5.10;1.83;;;;;;;25.68;46.70;101816.91;5033609;28;20277;-69
2023/06/22 00:26:08;;;;;;;3.72;1.58;;;;;;;25.68;46.85;101816.91;5034038;28;20057;-68
2023/06/22 00:28:33;;;;;;;3.90;1.75;;;;;;;25.67;46.67;101813.38;5033812;28;20072;-68
2023/06/22 00:31:00;;;;;;;3.38;1.83;;;;;;;25.66;46.72;101814.38;5033776;28;20037;-69
2023/06/22 00:33:26;;;;;;;3.50;1.65;;;;;;;25.66;46.53;101816.19;5033171;28;20036;-69
2023/06/22 00:35:52;;;;;;;4.00;1.80;;;;;;;25.65;46.50;101811.84;5033641;28;20033;-69
2023/06/22 00:38:18;;;;;;;4.43;2.00;;;;;;;25.66;46.66;101808.19;5033201;28;20914;-69
2023/06/22 00:40:43;;;;;;;4.65;1.80;;;;;;;25.63;46.63;101806.66;5033042;28;20029;-69
2023/06/22 00:43:09;;;;;;;3.75;1.60;;;;;;;25.65;46.77;101807.34;5033599;28;20052;-68
2023/06/22 00:45:34;;;;;;;2.75;1.40;;;;;;;25.65;46.66;101799.34;5033851;28;20037;-69
2023/06/22 00:48:00;;;;;;;3.55;1.67;;;;;;;25.65;46.65;101812.69;5033402;28;20036;-68
2023/06/22 00:50:33;;;;;;;3.80;1.92;;;;;;;25.62;46.61;101799.66;5033438;28;20091;-69
2023/06/22 00:53:00;;;;;;;4.18;1.83;;;;;;;25.64;46.29;101802.16;5033233;28;20036;-69
2023/06/22 00:55:27;;;;;;;4.03;1.80;;;;;;;25.65;46.74;101807.34;5033356;28;20043;-69
2023/06/22 00:57:56;;;;;;;3.60;1.90;;;;;;;25.63;46.83;101801.34;5032910;28;20075;-69
2023/06/22 01:00:24;;;;;;;3.40;1.80;;;;;;;25.61;46.74;101797.13;5033317;28;20069;-69
2023/06/22 01:02:55;;;;;;;3.72;1.73;;;;;;;25.63;46.65;101808.50;5033016;28;20033;-67
2023/06/22 01:05:21;;;;;;;4.25;1.80;;;;;;;25.62;46.79;101791.63;5033518;28;20041;-69
2023/06/22 01:08:16;;;;;;;3.33;1.52;;;;;;;25.60;46.58;101801.63;5033239;28;20040;-68
2023/06/22 01:10:44;;;;;;;;;;;;;;;25.73;46.46;101803.09;5034183;28;20036;-68
2023/06/22 01:13:35;;;;;;;3.75;1.90;;;;;;;25.65;46.29;101801.19;5032714;28;20284;-68
2023/06/22 01:16:04;;;;;;;3.80;1.80;;;;;;;25.61;46.42;101792.66;5033238;28;20045;-68
2023/06/22 01:18:32;;;;;;;3.47;1.88;;;;;;;25.62;46.52;101796.16;5032684;28;20056;-68
2023/06/22 01:21:00;;;;;;;5.07;1.98;;;;;;;25.62;46.45;101798.81;5032738;28;20056;-69
2023/06/22 01:24:08;;;;;;;3.47;1.92;;;;;;;25.60;46.40;101806.16;5032733;28;20071;-69
2023/06/22 01:26:52;;;;;;;3.90;1.95;;;;;;;25.60;46.57;101803.47;5023156;28;20049;-68
2023/06/22 01:29:18;;;;;;;3.70;2.03;;;;;;;25.62;46.46;101809.50;5033479;28;20068;-69
2023/06/22 01:31:45;;;;;;;4.78;2.00;;;;;;;25.60;46.52;101808.81;5030550;28;20045;-69
2023/06/22 01:34:12;;;;;;;3.90;1.90;;;;;;;25.57;46.64;101795.78;5032889;28;20032;-68
2023/06/22 01:36:39;;;;;;;4.15;1.90;;;;;;;25.57;46.54;101788.59;5032085;28;20032;-69
2023/06/22 01:39:06;;;;;;;4.18;1.80;;;;;;;25.56;46.64;101792.25;5031990;28;20028;-69
2023/06/22 01:41:34;;;;;;;4.60;2.10;;;;;;;25.54;46.60;101786.22;5032980;28;20385;-68
2023/06/22 01:44:01;;;;;;;4.05;1.80;;;;;;;25.53;46.46;101790.72;5032837;28;20095;-69
2023/06/22 01:46:27;;;;;;;4.55;2.25;;;;;;;25.56;46.37;101797.56;5032465;28;20045;-69
2023/06/22 01:48:52;;;;;;;3.92;2.10;;;;;;;25.56;46.51;101792.25;5030927;28;20492;-68
2023/06/22 01:51:18;;;;;;;3.90;2.10;;;;;;;25.56;46.41;101788.75;5032292;28;20139;-69
2023/06/22 01:53:43;;;;;;;3.70;2.13;;;;;;;25.56;46.67;101786.91;5031659;28;20083;-69
2023/06/22 01:56:09;;;;;;;4.72;2.25;;;;;;;25.56;46.40;101794.09;5032231;28;20087;-69
2023/06/22 01:58:40;;;;;;;3.63;1.85;;;;;;;25.53;46.53;101787.19;5031871;28;20044;-68
2023/06/22 02:01:10;;;;;;;3.80;2.13;;;;;;;25.53;46.53;101789.88;5031919;28;20029;-68
2023/06/22 02:03:57;;;;;;;4.60;2.10;;;;;;;25.52;46.50;101786.38;5031742;28;20419;-68
2023/06/22 02:06:34;;;;;;;4.75;2.20;;;;;;;25.53;46.36;101787.19;5032078;28;20039;-69
2023/06/22 02:09:03;;;;;;;3.67;2.13;;;;;;;25.55;46.47;101785.25;5031866;28;20500;-68
2023/06/22 02:11:30;;;;;;;4.30;2.33;;;;;;;25.54;46.66;101783.56;5031973;28;20026;-69
2023/06/22 02:13:57;;;;;;;4.00;2.30;;;;;;;25.55;46.70;101787.91;5031772;28;20044;-68
2023/06/22 02:16:23;;;;;;;4.35;2.60;;;;;;;25.54;46.34;101788.88;5031136;28;20037;-68
2023/06/22 02:18:52;;;;;;;6.07;2.60;;;;;;;25.53;46.65;101785.41;5031094;28;20046;-69
2023/06/22 02:21:18;;;;;;;4.55;2.50;;;;;;;25.53;46.80;101788.06;5032049;28;20039;-68
2023/06/22 02:23:43;;;;;;;3.90;2.30;;;;;;;25.53;46.65;101781.88;5031323;28;20131;-69
2023/06/22 02:26:09;;;;;;;5.63;2.38;;;;;;;25.53;46.43;101782.72;5031769;28;20132;-69
2023/06/22 02:28:35;;;;;;;4.30;2.47;;;;;;;25.52;46.49;101778.38;5030712;28;20029;-68
2023/06/22 02:31:00;;;;;;;4.18;2.35;;;;;;;25.52;46.31;101769.53;5031816;28;20033;-69
2023/06/22 02:33:25;;;;;;;4.82;2.50;;;;;;;25.53;46.63;101769.38;5030874;28;20408;-69
2023/06/22 02:35:51;;;;;;;4.80;2.67;;;;;;;25.53;46.59;101764.03;5030811;28;20037;-67
2023/06/22 02:38:17;;;;;;;4.63;2.63;;;;;;;25.52;46.61;101761.53;5031806;28;20384;-68
2023/06/22 02:40:42;;;;;;;4.35;2.30;;;;;;;25.50;46.33;101759.00;5030906;28;20047;-69
2023/06/22 02:43:08;;;;;;;4.70;2.47;;;;;;;25.48;46.30;101758.31;5037030;28;20036;-68
2023/06/22 02:45:33;;;;;;;5.00;2.65;;;;;;;25.53;46.58;101765.84;5031330;28;20172;-69
2023/06/22 02:47:58;;;;;;;4.07;2.47;;;;;;;25.53;46.86;101761.38;5031671;28;20040;-69
2023/06/22 02:50:24;;;;;;;4.63;2.80;;;;;;;25.51;46.63;101755.31;5031097;28;20041;-68
2023/06/22 02:52:49;;;;;;;4.43;2.75;;;;;;;25.50;46.46;101753.66;5031478;28;20068;-68
2023/06/22 02:55:15;;;;;;;6.68;2.78;;;;;;;25.51;46.91;101759.84;5031054;28;20060;-69
2023/06/22 02:57:43;;;;;;;4.78;2.67;;;;;;;25.50;46.50;101753.66;5046379;28;20079;-69
2023/06/22 03:00:17;;;;;;;5.10;2.78;;;;;;;25.49;46.62;101753.81;5030933;28;20025;-69
2023/06/22 03:02:47;;;;;;;3.92;2.38;;;;;;;25.50;46.69;101750.13;5031008;28;20052;-68
2023/06/22 03:05:14;;;;;;;4.82;2.67;;;;;;;25.49;46.77;101748.47;5030893;28;20116;-68
2023/06/22 03:07:43;;;;;;;4.70;2.78;;;;;;;25.47;46.51;101732.63;5030994;28;20044;-69
2023/06/22 03:10:10;;;;;;;5.20;2.63;;;;;;;25.48;46.66;101736.13;5030890;28;20037;-69
2023/06/22 03:12:39;;;;;;;5.43;2.72;;;;;;;25.49;46.71;101741.31;5030576;28;20029;-69
2023/06/22 03:15:07;;;;;;;4.43;2.30;;;;;;;25.49;46.86;101735.16;5030548;28;21032;-69
2023/06/22 03:17:34;;;;;;;4.75;2.50;;;;;;;25.47;46.84;101729.97;5030462;28;20140;-68
2023/06/22 03:19:59;;;;;;;4.13;2.47;;;;;;;25.42;46.46;101718.91;5030448;28;20036;-67
2023/06/22 03:22:25;;;;;;;5.18;2.95;;;;;;;25.48;46.68;101728.13;5031161;28;20052;-67
2023/06/22 03:24:50;;;;;;;4.97;2.70;;;;;;;25.48;46.65;101731.63;5031156;28;20035;-67
2023/06/22 03:27:15;;;;;;;6.15;2.63;;;;;;;25.49;46.51;101721.81;5030598;28;20033;-68
2023/06/22 03:29:42;;;;;;;4.90;2.80;;;;;;;25.46;46.48;101722.09;5030178;28;20053;-68
2023/06/22 03:32:07;;;;;;;5.65;2.72;;;;;;;25.48;46.63;101725.44;5030501;28;20396;-68
2023/06/22 03:34:34;;;;;;;5.68;2.67;;;;;;;25.47;46.77;101721.13;5031214;28;20029;-67
2023/06/22 03:37:00;;;;;;;5.18;3.03;;;;;;;25.45;46.73;101726.63;5030667;28;20032;-68
2023/06/22 03:39:25;;;;;;;4.50;2.60;;;;;;;25.45;46.50;101725.75;5030507;28;20029;-68
2023/06/22 03:41:50;;;;;;;4.63;2.85;;;;;;;25.45;46.63;101720.41;5030686;28;20040;-68
2023/06/22 03:44:16;;;;;;;5.10;2.72;;;;;;;25.42;46.80;101710.03;5030698;28;20026;-68
2023/06/22 03:46:41;;;;;;;4.88;2.85;;;;;;;25.47;46.82;101719.28;5029645;28;20140;-69
2023/06/22 03:49:07;;;;;;;4.80;2.80;;;;;;;25.46;46.63;101711.44;5030618;28;20071;-68
2023/06/22 03:51:32;;;;;;;5.03;2.92;;;;;;;25.43;46.62;101712.56;5031734;28;20033;-69
2023/06/22 03:53:58;;;;;;;4.32;2.70;;;;;;;25.46;46.69;101719.44;5030679;28;20028;-68
2023/06/22 03:56:23;;;;;;;5.65;3.00;;;;;;;25.44;46.67;101708.09;5033142;28;20037;-68
2023/06/22 03:58:49;;;;;;;4.80;2.70;;;;;;;25.43;46.86;101701.88;5034792;28;20037;-68
2023/06/22 04:01:14;;;;;;;4.75;2.42;;;;;;;25.44;46.71;101705.41;5036076;28;20035;-68
2023/06/22 04:03:41;;;;;;;4.43;2.67;;;;;;;25.42;46.86;101716.25;5034458;28;20892;-68
2023/06/22 04:06:06;;;;;;;4.72;2.78;;;;;;;25.43;46.46;101714.41;5034292;28;20107;-69
2023/06/22 04:08:31;;;;;;;6.27;3.07;;;;;;;25.43;46.59;101709.91;5033600;28;20115;-68
2023/06/22 04:10:56;;;;;;;5.28;2.90;;;;;;;25.42;46.34;101708.25;5033954;28;20752;-69
2023/06/22 04:13:22;;;;;;;6.22;3.10;;;;;;;25.41;46.70;101711.06;5034017;28;20123;-67
2023/06/22 04:15:47;;;;;;;5.57;3.05;;;;;;;25.42;46.56;101712.72;5034196;28;20187;-68
2023/06/22 04:18:13;;;;;;;4.90;2.72;;;;;;;25.42;46.68;101702.91;5033527;28;20053;-68
2023/06/22 04:20:38;;;;;;;4.78;2.80;;;;;;;25.40;46.71;101701.38;5033525;28;20033;-69
2023/06/22 04:23:04;;;;;;;5.38;3.38;;;;;;;25.42;46.86;101710.91;5032956;28;20030;-69
2023/06/22 04:25:29;;;;;;;5.53;2.92;;;;;;;25.39;46.62;101707.69;5034359;28;20439;-69
2023/06/22 04:27:54;;;;;;;6.07;2.90;;;;;;;25.41;46.74;101717.22;5032174;28;20046;-68
2023/06/22 04:30:20;;;;;;;4.95;2.70;;;;;;;25.41;46.72;101714.56;5033567;28;20048;-68
2023/06/22 04:32:45;;;;;;;5.93;3.05;;;;;;;25.40;46.79;101714.69;5033282;28;20037;-68
2023/06/22 04:35:11;;;;;;;4.95;2.80;;;;;;;25.42;46.81;101715.38;5034046;28;20029;-68
2023/06/22 04:37:37;;;;;;;4.95;2.88;;;;;;;25.39;46.67;101713.88;5033323;28;20033;-67
2023/06/22 04:40:05;;;;;;;5.03;2.90;;;;;;;25.39;46.76;101721.88;5033179;28;20415;-69
2023/06/22 04:42:31;;;;;;;5.43;2.95;;;;;;;25.38;46.75;101714.84;5033069;28;20079;-69
2023/06/22 04:44:57;;;;;;;5.28;2.80;;;;;;;25.38;46.73;101716.69;5033954;28;20025;-68
2023/06/22 04:47:22;;;;;;;4.95;2.75;;;;;;;25.40;46.51;101712.03;5033304;28;20268;-69
2023/06/22 04:49:47;;;;;;;5.70;2.80;;;;;;;25.41;46.74;101722.56;5033322;28;20413;-69
2023/06/22 04:52:13;;;;;;;4.55;2.53;;;;;;;25.41;46.69;101725.22;5033633;28;20140;-69
2023/06/22 04:54:47;;;;;;;4.50;2.95;;;;;;;25.39;46.43;101713.88;5032993;28;20041;-69
2023/06/22 04:57:13;;;;;;;6.00;3.03;;;;;;;25.39;46.89;101713.88;5031982;28;20039;-69
2023/06/22 04:59:41;;;;;;;5.25;3.00;;;;;;;25.39;46.87;101713.88;5033228;28;20040;-69
2023/06/22 05:02:07;;;;;;;4.82;2.97;;;;;;;25.40;46.68;101715.53;5032640;28;20122;-68
2023/06/22 05:04:34;;;;;;;5.50;2.97;;;;;;;25.40;46.62;101723.53;5033620;28;20125;-69
2023/06/22 05:07:00;;;;;;;4.60;2.70;;;;;;;25.39;46.91;101716.53;5032220;28;20128;-68
2023/06/22 05:09:25;;;;;;;4.60;2.80;;;;;;;25.39;46.83;101707.69;5032434;28;20185;-69
2023/06/22 05:11:51;;;;;;;4.75;2.55;;;;;;;25.39;46.77;101708.53;5032704;28;20029;-68
2023/06/22 05:14:17;;;;;;;5.03;2.50;;;;;;;25.37;46.68;101710.50;5032773;28;20083;-69
2023/06/22 05:16:44;;;;;;;5.47;2.85;;;;;;;25.39;46.83;101715.69;5033005;28;20034;-69
2023/06/22 05:19:09;;;;;;;5.40;2.83;;;;;;;25.38;46.83;101714.84;5031895;28;20140;-69
2023/06/22 05:21:35;;;;;;;4.47;2.60;;;;;;;25.39;46.83;101713.88;5032480;28;20119;-68
2023/06/22 05:24:02;;;;;;;4.47;2.90;;;;;;;25.39;46.86;101715.69;5033713;28;20761;-69
2023/06/22 05:26:28;;;;;;;5.35;2.85;;;;;;;25.38;46.74;101708.69;5032156;28;20033;-69
2023/06/22 05:28:54;;;;;;;5.60;2.92;;;;;;;25.38;46.61;101709.53;5032584;28;20033;-69
2023/06/22 05:31:20;;;;;;;5.68;2.90;;;;;;;25.38;46.84;101714.03;5032942;28;20104;-68
2023/06/22 05:33:47;;;;;;;5.38;2.60;;;;;;;25.36;46.81;101706.16;5032529;28;20037;-68
2023/06/22 05:36:12;;;;;;;4.47;2.67;;;;;;;25.37;46.82;101707.84;5033249;28;20083;-68
2023/06/22 05:38:39;;;;;;;4.93;3.00;;;;;;;25.37;46.90;101702.50;5032201;28;20562;-68
2023/06/22 05:41:04;;;;;;;4.03;2.60;;;;;;;25.39;46.95;101702.34;5032118;28;20040;-68
2023/06/22 05:43:30;;;;;;;5.32;2.90;;;;;;;25.39;46.80;101703.19;5031837;28;20383;-68
2023/06/22 05:45:56;;;;;;;5.03;2.80;;;;;;;25.37;47.07;101704.34;5031508;28;20044;-69
2023/06/22 05:48:21;;;;;;;5.45;2.75;;;;;;;25.40;46.96;101712.03;5032664;28;20033;-69
2023/06/22 05:50:47;;;;;;;5.28;3.03;;;;;;;25.39;46.88;101711.22;5031859;28;20045;-68
2023/06/22 05:53:12;;;;;;;6.38;3.03;;;;;;;25.39;46.70;101713.00;5032338;28;20037;-68
2023/06/22 05:55:37;;;;;;;5.82;2.90;;;;;;;25.38;47.09;101714.84;5031724;28;20110;-68
2023/06/22 05:58:05;;;;;;;4.82;2.85;;;;;;;25.37;46.69;101702.50;5031603;28;20172;-68
2023/06/22 06:00:31;;;;;;;5.18;2.67;;;;;;;25.40;47.30;101709.38;5032233;28;20461;-68
2023/06/22 06:02:56;;;;;;;5.40;3.25;;;;;;;25.38;47.09;101703.34;5032084;28;20037;-68
2023/06/22 06:05:23;;;;;;;5.30;3.10;;;;;;;25.33;46.99;101701.13;5031449;28;20032;-68
2023/06/22 06:07:49;;;;;;;5.93;3.10;;;;;;;25.38;47.26;101712.19;5031957;28;20091;-68
2023/06/22 06:10:14;;;;;;;5.40;3.10;;;;;;;25.37;47.20;101705.16;5031759;28;20036;-69
2023/06/22 06:12:40;;;;;;;4.80;2.78;;;;;;;25.38;47.40;101704.19;5038358;28;20406;-68
2023/06/22 06:15:06;;;;;;;5.13;2.85;;;;;;;25.38;47.07;101698.03;5031469;28;20073;-69
2023/06/22 06:17:31;;;;;;;6.68;3.10;;;;;;;25.38;47.11;101700.69;5030760;28;20052;-68
2023/06/22 06:19:56;;;;;;;6.13;3.50;;;;;;;25.37;47.19;101689.16;5031473;28;20037;-69
2023/06/22 06:22:23;;;;;;;5.13;3.00;;;;;;;25.36;47.70;101698.16;5031613;28;20045;-69
2023/06/22 06:24:49;;;;;;;10.43;7.60;;;;;;;25.35;47.84;101705.31;5032160;28;20039;-68
2023/06/22 06:27:15;;;;;;;11.48;9.18;;;;;;;25.30;48.34;101709.44;5031396;28;20478;-68
2023/06/22 06:29:41;;;;;;;12.57;9.35;;;;;;;25.24;48.09;101702.00;5031827;28;20040;-66
2023/06/22 06:32:07;;;;;;;11.52;9.43;;;;;;;25.20;48.20;101708.63;5031684;28;20033;-67
2023/06/22 06:34:32;;;;;;;11.88;9.25;;;;;;;25.15;48.47;101695.75;5031504;28;20051;-68
2023/06/22 06:36:57;;;;;;;11.60;10.10;;;;;;;25.05;48.81;101698.47;5032049;28;20507;-66
2023/06/22 06:39:22;;;;;;;14.10;10.88;;;;;;;24.98;49.33;101708.91;5029562;28;20029;-66
2023/06/22 06:41:48;;;;;;;12.73;9.85;;;;;;;24.89;49.52;101698.31;5031225;28;20032;-67
2023/06/22 06:44:13;;;;;;;11.77;9.70;;;;;;;24.81;49.66;101709.69;5031231;28;20033;-66
2023/06/22 06:46:39;;;;;;;11.30;9.52;;;;;;;24.75;50.00;101704.97;5031493;28;20405;-67
2023/06/22 06:49:04;;;;;;;15.27;11.05;;;;;;;24.70;50.05;101707.25;5030638;28;20036;-66
2023/06/22 06:51:29;;;;;;;13.25;9.98;;;;;;;24.66;50.56;101711.16;5022037;28;20037;-65
2023/06/22 06:53:55;;;;;;;12.68;9.77;;;;;;;24.60;50.58;101710.78;5031251;28;20132;-67
2023/06/22 06:56:20;;;;;;;14.30;10.37;;;;;;;24.56;50.70;101708.53;5031131;28;20602;-66
2023/06/22 06:58:46;;;;;;;14.13;10.15;;;;;;;24.52;51.04;101699.16;5030756;28;20261;-68
2023/06/22 07:01:12;;;;;;;14.55;10.25;;;;;;;24.46;51.09;101700.56;5031326;28;20057;-68
2023/06/22 07:03:38;;;;;;;14.63;10.95;;;;;;;24.45;51.25;101704.25;5031531;28;20036;-68
2023/06/22 07:06:03;;;;;;;14.10;9.63;;;;;;;24.43;51.37;101706.19;5031212;28;20029;-67
2023/06/22 07:08:28;;;;;;;14.07;10.65;;;;;;;24.42;51.57;101704.53;5031051;28;20033;-67
2023/06/22 07:10:54;;;;;;;13.40;10.82;;;;;;;24.35;51.78;101690.09;5031207;28;20063;-67
2023/06/22 07:13:19;;;;;;;14.15;11.20;;;;;;;24.38;51.80;101705.78;5030876;28;20060;-67
2023/06/22 07:15:44;;;;;;;14.38;11.20;;;;;;;24.34;52.00;101705.25;5031445;28;20037;-68
2023/06/22 07:18:10;;;;;;;12.73;10.85;;;;;;;24.31;51.78;101707.34;5030713;28;20140;-69
2023/06/22 07:20:35;;;;;;;12.95;11.13;;;;;;;24.32;52.21;101703.72;5031063;28;20060;-69
2023/06/22 07:23:00;;;;;;;16.13;10.75;;;;;;;24.30;52.65;101698.53;5030078;28;20120;-67
2023/06/22 07:25:26;;;;;;;12.80;10.30;;;;;;;24.30;53.24;101703.84;5031084;28;20037;-67
2023/06/22 07:28:03;;;;;;;13.27;10.50;;;;;;;24.23;53.96;101694.78;5030304;28;20150;-65
2023/06/22 07:30:29;;;;;;;11.88;9.63;;;;;;;24.24;54.02;101699.97;5034361;28;20037;-68
2023/06/22 07:32:54;;;;;;;13.13;10.25;;;;;;;24.24;54.61;101701.75;5035269;28;20112;-68
2023/06/22 07:35:19;;;;;;;17.20;10.27;;;;;;;24.20;55.41;101692.41;5033837;28;20056;-65
2023/06/22 07:37:45;;;;;;;12.25;10.55;;;;;;;24.16;56.19;101683.00;5032573;28;20029;-65
2023/06/22 07:40:11;;;;;;;14.47;11.13;;;;;;;24.11;56.74;101675.44;5034846;28;20029;-67
2023/06/22 07:42:36;;;;;;;13.48;11.65;;;;;;;24.08;57.64;101671.28;5034047;28;20343;-66
2023/06/22 07:45:03;;;;;;;14.30;11.93;;;;;;;24.08;58.06;101668.59;5034004;28;20079;-66
2023/06/22 07:47:29;;;;;;;13.32;11.75;;;;;;;24.11;57.64;101661.31;5034202;28;20036;-67
2023/06/22 07:50:00;;;;;;;14.15;12.02;;;;;;;24.09;57.70;101653.47;5033379;28;20033;-71
2023/06/22 07:52:26;;;;;;;14.02;11.82;;;;;;;24.10;58.12;101649.81;5033649;28;20025;-68
2023/06/22 07:54:51;;;;;;;13.55;12.10;;;;;;;24.14;58.67;101651.19;5034169;28;20492;-66
2023/06/22 07:57:17;;;;;;;14.07;11.95;;;;;;;24.12;58.55;101631.03;5033556;28;20037;-67
2023/06/22 07:59:42;;;;;;;13.75;12.30;;;;;;;24.13;58.27;101630.03;5033950;28;20061;-69
2023/06/22 08:02:09;;;;;;;14.27;12.77;;;;;;;24.12;58.18;101618.56;5033910;28;20152;-67
2023/06/22 08:04:34;;;;;;;15.43;12.85;;;;;;;24.14;57.28;101621.06;5033288;28;20045;-66
2023/06/22 08:07:00;;;;;;;13.82;12.27;;;;;;;24.16;57.68;101616.44;5032231;28;20073;-68
2023/06/22 08:09:28;;;;;;;14.05;12.48;;;;;;;24.20;57.04;101612.50;5032694;28;20433;-70
2023/06/22 08:11:55;;;;;;;15.93;12.57;;;;;;;24.21;57.48;101600.84;5033664;28;20033;-67
2023/06/22 08:14:20;;;;;;;16.08;12.13;;;;;;;24.23;56.56;101599.72;5033643;28;20176;-69
2023/06/22 08:16:46;;;;;;;14.90;11.98;;;;;;;24.26;55.97;101598.59;5033684;28;20136;-67
2023/06/22 08:19:11;;;;;;;13.75;11.48;;;;;;;24.31;55.99;101599.00;5033291;28;20590;-65
2023/06/22 08:21:37;;;;;;;13.20;11.60;;;;;;;24.40;55.42;101591.94;5033644;28;20037;-67
2023/06/22 08:24:03;;;;;;;15.35;12.35;;;;;;;24.44;55.52;101590.66;5033778;28;20148;-64
2023/06/22 08:26:28;;;;;;;14.85;11.85;;;;;;;24.47;55.03;101589.50;5034078;28;20120;-66
2023/06/22 08:28:54;;;;;;;17.90;12.95;;;;;;;24.51;55.26;101589.06;5033897;28;20809;-64
2023/06/22 08:31:19;;;;;;;14.80;11.82;;;;;;;24.49;55.65;101588.38;5033495;28;20432;-69
2023/06/22 08:33:46;;;;;;;11.90;10.15;;;;;;;24.51;54.87;101593.56;5033617;28;20028;-70
2023/06/22 08:36:13;;;;;;;12.32;9.93;;;;;;;24.52;54.86;101595.25;5033560;28;20059;-69
2023/06/22 08:38:38;;;;;;;11.45;9.32;;;;;;;24.55;54.64;101600.28;5050038;28;20037;-69
2023/06/22 08:41:03;;;;;;;11.80;7.72;;;;;;;24.58;55.01;101598.19;5032058;28;20539;-68
2023/06/22 08:43:29;;;;;;;11.40;7.68;;;;;;;24.61;55.33;101597.88;5033789;28;20071;-69
2023/06/22 08:45:54;;;;;;;10.52;7.50;;;;;;;24.68;55.29;101594.63;5033384;28;20040;-68
2023/06/22 08:48:19;;;;;;;10.93;6.85;;;;;;;24.70;55.42;101590.78;5033252;28;20037;-68
2023/06/22 08:50:45;;;;;;;10.27;7.07;;;;;;;24.76;55.73;101590.19;5032980;28;20029;-68
2023/06/22 08:53:10;;;;;;;8.00;5.85;;;;;;;24.77;55.54;101580.41;5033369;28;20792;-68
2023/06/22 08:55:35;;;;;;;10.07;6.32;;;;;;;24.80;55.45;101580.94;5033760;28;20036;-68
2023/06/22 08:58:01;;;;;;;8.20;5.28;;;;;;;24.86;55.36;101581.31;5033646;28;20037;-67
2023/06/22 09:00:28;;;;;;;9.77;5.20;;;;;;;24.84;55.15;101573.47;5032717;28;20038;-67
2023/06/22 09:02:58;;;;;;;8.40;5.25;;;;;;;24.88;55.33;101568.66;5033321;28;20037;-67
2023/06/22 09:05:25;;;;;;;12.00;5.60;;;;;;;24.90;54.91;101570.19;5032453;28;20037;-67
2023/06/22 09:07:50;;;;;;;9.40;5.25;;;;;;;24.91;54.99;101566.53;5033444;28;20082;-68
2023/06/22 09:10:15;;;;;;;9.60;4.78;;;;;;;24.94;54.44;101568.03;5033643;28;20037;-68
2023/06/22 09:12:42;;;;;;;7.53;4.82;;;;;;;24.94;54.65;101563.56;5031391;28;20030;-68
2023/06/22 09:15:07;;;;;;;7.05;4.53;;;;;;;24.95;54.24;101556.41;5033072;28;20040;-69
2023/06/22 09:17:34;;;;;;;8.85;4.80;;;;;;;24.95;54.32;101556.41;5032522;28;20065;-68
2023/06/22 09:19:59;;;;;;;8.10;5.13;;;;;;;24.99;54.21;101565.75;5031503;28;20112;-68
2023/06/22 09:22:28;;;;;;;8.38;4.97;;;;;;;24.99;53.90;101555.94;5032431;28;20123;-68
2023/06/22 09:24:54;;;;;;;7.45;4.47;;;;;;;25.00;53.78;101562.09;5031830;28;20064;-68
2023/06/22 09:27:19;;;;;;;7.90;4.50;;;;;;;24.99;53.93;101555.94;5033450;28;20060;-69
2023/06/22 09:29:45;;;;;;;8.57;4.83;;;;;;;25.02;53.79;101562.78;5031520;28;20120;-69
2023/06/22 09:32:10;;;;;;;7.45;3.90;;;;;;;25.02;53.58;101561.94;5032670;28;20336;-68
2023/06/22 09:34:35;;;;;;;7.15;4.60;;;;;;;25.01;53.50;101562.94;5032637;28;20573;-68
2023/06/22 09:37:01;;;;;;;9.07;4.32;;;;;;;25.05;53.47;101558.97;5033086;28;20032;-68
2023/06/22 09:39:26;;;;;;;7.13;4.32;;;;;;;25.04;53.24;101566.16;5032280;28;20047;-68
2023/06/22 09:41:52;;;;;;;7.47;4.03;;;;;;;25.06;53.09;101560.66;5032102;28;20026;-68
2023/06/22 09:44:17;;;;;;;6.95;4.30;;;;;;;25.05;52.89;101557.13;5032213;28;20427;-67
2023/06/22 09:46:43;;;;;;;6.57;3.63;;;;;;;25.07;52.76;101557.00;5032490;28;20041;-69
2023/06/22 09:49:08;;;;;;;8.05;4.25;;;;;;;25.06;52.77;101548.16;5032217;28;20350;-68
2023/06/22 09:51:34;;;;;;;6.50;4.13;;;;;;;25.04;52.51;101544.81;5032254;28;20029;-68
2023/06/22 09:53:59;;;;;;;6.47;3.97;;;;;;;25.07;52.71;101554.31;5031197;28;20281;-67
2023/06/22 09:56:24;;;;;;;6.53;3.80;;;;;;;25.03;52.71;101540.47;5031882;28;20551;-68
2023/06/22 09:58:52;;;;;;;6.30;3.72;;;;;;;25.06;52.56;101542.00;5032248;28;20504;-69
2023/06/22 10:01:18;;;;;;;7.45;3.97;;;;;;;25.05;52.11;101543.81;5032220;28;20036;-68
2023/06/22 10:03:43;;;;;;;6.97;3.67;;;;;;;25.07;52.03;101549.84;5031835;28;20037;-69
2023/06/22 10:06:08;;;;;;;6.40;3.67;;;;;;;25.09;52.11;101549.69;5031570;28;20037;-68
2023/06/22 10:08:35;;;;;;;7.28;4.03;;;;;;;25.07;52.42;101546.31;5031823;28;20398;-68
2023/06/22 10:11:00;;;;;;;7.13;3.90;;;;;;;25.08;52.10;101548.00;5031403;28;20083;-68
2023/06/22 10:13:26;;;;;;;5.38;3.70;;;;;;;25.09;52.10;101545.19;5031537;28;21055;-68
2023/06/22 10:15:52;;;;;;;4.95;3.58;;;;;;;25.09;52.25;101547.84;5032142;28;20029;-69
2023/06/22 10:18:20;;;;;;;6.30;3.55;;;;;;;25.06;52.07;101544.66;5031143;28;20185;-68
2023/06/22 10:20:50;;;;;;;5.40;3.67;;;;;;;25.07;51.91;101547.19;5031471;28;20048;-68
2023/06/22 10:23:15;;;;;;;6.97;3.70;;;;;;;25.09;51.84;101550.53;5031572;28;20036;-68
2023/06/22 10:25:40;;;;;;;5.75;3.40;;;;;;;25.11;51.53;101553.03;5030286;28;20025;-68
2023/06/22 10:28:07;;;;;;;6.95;4.22;;;;;;;25.08;51.80;101551.50;5032346;28;20039;-69
2023/06/22 10:30:32;;;;;;;5.15;3.50;;;;;;;25.10;52.06;101562.88;5031060;28;20637;-69
2023/06/22 10:32:57;;;;;;;5.85;3.67;;;;;;;25.13;52.17;101567.03;5031896;28;20094;-72
2023/06/22 10:35:23;;;;;;;5.75;3.40;;;;;;;25.11;51.78;101558.38;5032072;28;20128;-73
2023/06/22 10:37:49;;;;;;;5.78;3.38;;;;;;;25.12;51.85;101563.56;5031652;28;20066;-72
2023/06/22 10:40:15;;;;;;;6.47;3.63;;;;;;;25.12;52.13;101568.88;5031140;28;20064;-73
2023/06/22 10:42:41;;;;;;;9.23;3.53;;;;;;;25.13;52.23;101575.03;5031785;28;20075;-69
2023/06/22 10:45:08;;;;;;;5.68;3.30;;;;;;;25.14;52.35;101584.72;5031328;28;20072;-71
2023/06/22 10:47:33;;;;;;;5.78;3.40;;;;;;;25.15;52.31;101591.72;5031213;28;20082;-72
2023/06/22 10:49:59;;;;;;;7.63;3.80;;;;;;;25.16;52.69;101591.56;5030459;28;20037;-73
2023/06/22 10:52:24;;;;;;;7.15;3.70;;;;;;;25.17;52.88;101595.09;5031751;28;20072;-71
2023/06/22 10:54:50;;;;;;;6.85;3.83;;;;;;;25.17;52.71;101590.59;5030693;28;20477;-71
2023/06/22 10:57:15;;;;;;;5.38;3.67;;;;;;;25.18;52.81;101591.41;5029627;28;20456;-71
2023/06/22 10:59:40;;;;;;;5.45;3.60;;;;;;;25.19;52.80;101593.09;5029842;28;20029;-73
2023/06/22 11:02:06;;;;;;;5.63;3.22;;;;;;;25.19;52.89;101585.09;5029102;28;20037;-69
2023/06/22 11:04:31;;;;;;;7.70;3.80;;;;;;;25.17;53.08;101593.25;5028620;28;20037;-71
2023/06/22 11:06:56;;;;;;;6.15;3.45;;;;;;;25.20;53.22;101599.25;5029084;28;20128;-72
2023/06/22 11:09:22;;;;;;;9.32;3.97;;;;;;;25.20;53.72;101594.78;5029603;28;20952;-70
2023/06/22 11:11:49;;;;;;;6.78;3.53;;;;;;;25.21;53.56;101590.28;5029796;28;20478;-71
2023/06/22 11:14:14;;;;;;;6.63;3.90;;;;;;;25.19;53.86;101592.28;5028479;28;20048;-71
2023/06/22 11:16:40;;;;;;;9.38;4.30;;;;;;;25.21;53.86;101590.28;5029724;28;20045;-70
2023/06/22 11:19:05;;;;;;;7.13;4.50;;;;;;;25.20;53.88;101591.25;5029661;28;20057;-73